King Cotton — 3FLS2 — position and weather

sailwx.info

Track history (hours):
 
Tides and Currents Weather Stations Pressure Air Temp Water Temp Dewpoint Dewpoint Depression Visibility Wind Speed Wind Dir Waves Ship Positions

King Cotton

Last reported at 2018-Jun-28 20:29 UTC. Time now 2018-Jul-22 18:04 UTC.
Position S 38°55' E 147°26'.
Warning: this ship's position is 23 days out of date.

Length 180 m; draft 8.4 m.

Type: Ship. MMSI: 356757000.

Date/timePositionNaut miles runAvg speedWind from/ knotsBaromVisibWave heightAir tempDewpointWater temp
2018-Jun-28 20:29S 38°55' E 147°26'711.8
2018-Jun-28 19:51S 38°52' E 147°34'711.4
2018-Jun-28 19:14S 38°50' E 147°43'511.2
2018-Jun-28 18:49S 38°49' E 147°49'411.2
2018-Jun-28 18:27S 38°47' E 147°54'1211.3
2018-Jun-28 17:21S 38°44' E 148°09'610.9
2018-Jun-28 16:48S 38°41' E 148°16'411.2
2018-Jun-28 16:29S 38°39' E 148°20'612.0
2018-Jun-28 16:00S 38°35' E 148°25'1512.2
2018-Jun-28 14:47S 38°26' E 148°40'412.1
2018-Jun-28 14:29S 38°24' E 148°44'612.2
2018-Jun-28 14:00S 38°20' E 148°50'612.3
2018-Jun-28 13:30S 38°17' E 148°56'612.4
2018-Jun-28 13:00S 38°13' E 149°03'  
Track history (hours):
 
Tides and Currents Weather Stations Pressure Air Temp Water Temp Dewpoint Dewpoint Depression Visibility Wind Speed Wind Dir Waves Ship Positions

King Cotton

Last reported at 2018-Jun-28 20:29 UTC. Time now 2018-Jul-22 18:04 UTC.
Position S 38°55' E 147°26'.
Warning: this ship's position is 23 days out of date.

Length 180 m; draft 8.4 m.

Type: Ship. MMSI: 356757000.

Date/timePositionNaut miles runAvg speedWind from/ knotsBaromVisibWave heightAir tempDewpointWater temp
2018-Jun-28 20:29S 38°55' E 147°26'711.8
2018-Jun-28 19:51S 38°52' E 147°34'711.4
2018-Jun-28 19:14S 38°50' E 147°43'511.2
2018-Jun-28 18:49S 38°49' E 147°49'411.2
2018-Jun-28 18:27S 38°47' E 147°54'1211.3
2018-Jun-28 17:21S 38°44' E 148°09'610.9
2018-Jun-28 16:48S 38°41' E 148°16'411.2
2018-Jun-28 16:29S 38°39' E 148°20'612.0
2018-Jun-28 16:00S 38°35' E 148°25'1512.2
2018-Jun-28 14:47S 38°26' E 148°40'412.1
2018-Jun-28 14:29S 38°24' E 148°44'612.2
2018-Jun-28 14:00S 38°20' E 148°50'612.3
2018-Jun-28 13:30S 38°17' E 148°56'612.4
2018-Jun-28 13:00S 38°13' E 149°03'  

Dump ship's entire track history